createdAt,value
2023-04-15T00:00:58.487Z,25.62
2023-04-15T00:03:25.579Z,25.59
2023-04-15T00:05:52.745Z,25.49
2023-04-15T00:08:19.566Z,25.61
2023-04-15T00:10:46.741Z,25.49
2023-04-15T00:13:13.485Z,25.54
2023-04-15T00:15:40.076Z,25.55
2023-04-15T00:18:08.291Z,25.53
2023-04-15T00:20:35.446Z,25.46
2023-04-15T00:23:02.584Z,25.43
2023-04-15T00:25:29.330Z,25.52
2023-04-15T00:27:55.939Z,25.49
2023-04-15T00:30:23.980Z,25.49
2023-04-15T00:32:50.874Z,25.46
2023-04-15T00:35:21.729Z,25.45
2023-04-15T00:37:50.001Z,25.44
2023-04-15T00:40:17.738Z,25.37
2023-04-15T00:42:44.824Z,25.03
2023-04-15T00:45:11.500Z,25.41
2023-04-15T00:47:38.118Z,25.45
2023-04-15T00:50:05.146Z,25.44
2023-04-15T00:52:31.996Z,25.48
2023-04-15T00:55:01.292Z,25.34
2023-04-15T00:57:28.483Z,25.44
2023-04-15T00:59:55.988Z,25.48
2023-04-15T01:02:22.827Z,25.45
2023-04-15T01:04:49.708Z,25.51
2023-04-15T01:07:17.386Z,25.54
2023-04-15T01:09:44.046Z,25.53
2023-04-15T01:12:12.729Z,25.55
2023-04-15T01:14:39.501Z,25.50
2023-04-15T01:17:06.079Z,25.50
2023-04-15T01:19:32.960Z,25.52
2023-04-15T01:21:59.508Z,25.52
2023-04-15T01:24:27.108Z,25.50
2023-04-15T01:26:54.500Z,25.49
2023-04-15T01:29:21.404Z,25.19
2023-04-15T01:31:52.398Z,25.38
2023-04-15T01:34:19.325Z,25.41
2023-04-15T01:36:46.250Z,25.42
2023-04-15T01:39:14.012Z,25.38
2023-04-15T01:41:42.272Z,25.42
2023-04-15T01:44:08.916Z,25.42
2023-04-15T01:46:35.789Z,25.46
2023-04-15T01:49:02.566Z,25.45
2023-04-15T01:51:29.295Z,25.34
2023-04-15T01:53:58.647Z,25.34
2023-04-15T01:56:25.311Z,25.29
2023-04-15T01:58:51.945Z,25.35
2023-04-15T02:01:19.852Z,25.31
2023-04-15T02:03:47.078Z,25.29
2023-04-15T02:06:15.375Z,25.39
2023-04-15T02:08:41.992Z,25.17
2023-04-15T02:11:08.589Z,25.40
2023-04-15T02:13:35.299Z,25.40
2023-04-15T02:16:01.996Z,25.32
2023-04-15T02:18:28.584Z,25.33
2023-04-15T02:20:57.157Z,25.36
2023-04-15T02:23:23.792Z,25.27
2023-04-15T02:25:54.097Z,25.16
2023-04-15T02:28:21.726Z,25.31
2023-04-15T02:30:52.773Z,25.26
2023-04-15T02:33:20.096Z,25.20
2023-04-15T02:35:47.309Z,25.21
2023-04-15T02:38:14.765Z,25.19
2023-04-15T02:40:41.573Z,25.28
2023-04-15T02:43:08.152Z,25.23
2023-04-15T02:45:35.533Z,25.30
2023-04-15T02:48:06.553Z,25.27
2023-04-15T02:50:33.470Z,25.26
2023-04-15T02:53:01.547Z,25.33
2023-04-15T02:55:29.037Z,25.30
2023-04-15T02:57:55.981Z,25.31
2023-04-15T03:00:25.128Z,25.11
2023-04-15T03:02:56.342Z,25.26
2023-04-15T03:05:26.601Z,25.23
2023-04-15T03:07:53.263Z,25.26
2023-04-15T03:10:22.714Z,25.30
2023-04-15T03:12:49.307Z,25.34
2023-04-15T03:15:18.769Z,25.32
2023-04-15T03:17:49.569Z,25.38
2023-04-15T03:20:16.942Z,25.39
2023-04-15T03:22:43.621Z,25.38
2023-04-15T03:25:10.659Z,25.15
2023-04-15T03:27:38.390Z,25.28
2023-04-15T03:30:06.662Z,25.28
2023-04-15T03:32:35.982Z,25.26
2023-04-15T03:35:02.768Z,25.26
2023-04-15T03:37:29.396Z,25.35
2023-04-15T03:39:55.997Z,25.36
2023-04-15T03:42:22.698Z,25.36
2023-04-15T03:44:49.363Z,25.32
2023-04-15T03:47:16.329Z,25.36
2023-04-15T03:49:42.852Z,25.38
2023-04-15T03:52:09.395Z,25.35
2023-04-15T03:54:36.060Z,25.32
2023-04-15T03:57:02.549Z,25.39
2023-04-15T03:59:29.103Z,25.37
2023-04-15T04:01:55.794Z,25.30
2023-04-15T04:04:22.440Z,25.24
2023-04-15T04:06:49.027Z,25.30
2023-04-15T04:09:15.741Z,25.34
2023-04-15T04:11:42.293Z,25.39
2023-04-15T04:14:08.838Z,25.39
2023-04-15T04:16:35.681Z,25.39
2023-04-15T04:19:02.612Z,25.33
2023-04-15T04:21:29.429Z,25.37
2023-04-15T04:23:56.660Z,25.35
2023-04-15T04:26:23.160Z,25.27
2023-04-15T04:28:49.679Z,25.01
2023-04-15T04:31:16.206Z,25.28
2023-04-15T04:33:42.711Z,25.30
2023-04-15T04:36:09.287Z,25.33
2023-04-15T04:38:35.808Z,25.34
2023-04-15T04:41:02.381Z,25.31
2023-04-15T04:43:28.961Z,25.29
2023-04-15T04:45:55.742Z,25.10
2023-04-15T04:48:22.873Z,25.18
2023-04-15T04:50:49.413Z,25.24
2023-04-15T04:53:16.248Z,25.20
2023-04-15T04:55:42.813Z,25.30
2023-04-15T04:58:09.368Z,25.24
2023-04-15T05:00:37.561Z,25.13
2023-04-15T05:03:04.449Z,25.23
2023-04-15T05:05:31.427Z,24.91
2023-04-15T05:07:58.010Z,25.27
2023-04-15T05:10:24.543Z,25.26
2023-04-15T05:12:51.915Z,25.23
2023-04-15T05:15:18.487Z,25.25
2023-04-15T05:17:45.087Z,25.22
2023-04-15T05:20:14.563Z,25.03
2023-04-15T05:22:41.152Z,25.14
2023-04-15T05:25:08.672Z,25.18
2023-04-15T05:27:35.486Z,25.20
2023-04-15T05:30:02.050Z,25.17
2023-04-15T05:32:28.662Z,25.15
2023-04-15T05:34:55.626Z,24.89
2023-04-15T05:37:22.328Z,25.17
2023-04-15T05:39:49.068Z,25.11
2023-04-15T05:42:15.929Z,25.19
2023-04-15T05:44:42.703Z,25.16
2023-04-15T05:47:10.882Z,25.07
2023-04-15T05:49:37.455Z,25.24
2023-04-15T05:52:04.010Z,25.21
2023-04-15T05:54:30.906Z,25.19
2023-04-15T05:56:58.294Z,25.24
2023-04-15T05:59:24.841Z,25.11
2023-04-15T06:01:53.391Z,25.14
2023-04-15T06:04:20.133Z,25.14
2023-04-15T06:06:47.164Z,25.15
2023-04-15T06:09:13.775Z,25.04
2023-04-15T06:11:41.421Z,25.02
2023-04-15T06:14:08.204Z,25.02
2023-04-15T06:16:36.483Z,24.89
2023-04-15T06:19:03.573Z,24.99
2023-04-15T06:21:30.137Z,25.00
2023-04-15T06:23:56.772Z,24.90
2023-04-15T06:26:23.376Z,24.95
2023-04-15T06:28:49.945Z,24.98
2023-04-15T06:31:16.471Z,25.08
2023-04-15T06:33:43.036Z,24.99
2023-04-15T06:36:09.530Z,24.89
2023-04-15T06:38:36.050Z,24.79
2023-04-15T06:41:03.578Z,24.98
2023-04-15T06:43:30.724Z,24.83
2023-04-15T06:45:57.359Z,24.88
2023-04-15T06:48:24.347Z,24.86
2023-04-15T06:50:50.872Z,24.83
2023-04-15T06:53:17.392Z,24.77
2023-04-15T06:55:43.948Z,24.78
2023-04-15T06:58:10.782Z,24.73
2023-04-15T07:00:39.104Z,24.79
2023-04-15T07:03:05.715Z,24.74
2023-04-15T07:05:32.445Z,24.66
2023-04-15T07:07:59.027Z,24.82
2023-04-15T07:10:26.074Z,24.84
2023-04-15T07:12:52.701Z,24.85
2023-04-15T07:15:19.514Z,24.89
2023-04-15T07:17:46.317Z,24.92
2023-04-15T07:20:13.114Z,24.84
2023-04-15T07:22:40.113Z,24.82
2023-04-15T07:25:07.577Z,24.77
2023-04-15T07:27:34.150Z,24.79
2023-04-15T07:30:00.910Z,24.74
2023-04-15T07:32:27.490Z,24.71
2023-04-15T07:34:54.612Z,24.44
2023-04-15T07:37:21.236Z,24.65
2023-04-15T07:39:47.985Z,24.68
2023-04-15T07:42:15.197Z,24.64
2023-04-15T07:44:41.923Z,24.72
2023-04-15T07:47:08.544Z,24.70
2023-04-15T07:49:35.158Z,24.75
2023-04-15T07:52:04.744Z,24.74
2023-04-15T07:54:31.345Z,24.73
2023-04-15T07:56:58.935Z,24.76
2023-04-15T07:59:25.608Z,24.85
2023-04-15T08:01:52.255Z,24.73
2023-04-15T08:04:19.054Z,25.07
2023-04-15T08:06:45.831Z,25.08
2023-04-15T08:09:12.669Z,24.85
2023-04-15T08:11:39.288Z,24.85
2023-04-15T08:14:05.900Z,24.65
2023-04-15T08:16:32.944Z,24.85
2023-04-15T08:18:59.821Z,25.00
2023-04-15T08:21:27.569Z,24.84
2023-04-15T08:23:54.545Z,24.97
2023-04-15T08:26:21.319Z,25.03
2023-04-15T08:28:48.358Z,25.02
2023-04-15T08:31:15.508Z,25.06
2023-04-15T08:33:42.469Z,25.12
2023-04-15T08:36:09.341Z,25.08
2023-04-15T08:38:36.323Z,25.11
2023-04-15T08:41:04.848Z,25.10
2023-04-15T08:43:34.453Z,24.91
2023-04-15T08:46:01.621Z,25.15
2023-04-15T08:48:32.749Z,25.20
2023-04-15T08:50:59.280Z,25.10
2023-04-15T08:53:25.866Z,25.19
2023-04-15T08:55:52.704Z,25.08
2023-04-15T08:58:19.744Z,25.14
2023-04-15T09:00:46.582Z,25.13
2023-04-15T09:03:13.362Z,24.88
2023-04-15T09:05:40.073Z,25.02
2023-04-15T09:08:06.699Z,25.10
2023-04-15T09:10:33.353Z,24.91
2023-04-15T09:13:00.501Z,24.95
2023-04-15T09:15:29.959Z,25.07
2023-04-15T09:17:56.935Z,25.08
2023-04-15T09:20:23.740Z,25.13
2023-04-15T09:22:50.441Z,25.17
2023-04-15T09:25:22.891Z,25.18
2023-04-15T09:27:52.696Z,25.17
2023-04-15T09:30:19.267Z,25.09
2023-04-15T09:32:53.423Z,25.19
2023-04-15T09:35:23.452Z,25.07
2023-04-15T09:37:50.365Z,25.06
2023-04-15T09:40:33.659Z,25.23
2023-04-15T09:43:00.450Z,25.19
2023-04-15T09:45:29.504Z,25.20
2023-04-15T09:47:58.996Z,25.15
2023-04-15T09:50:31.797Z,25.11
2023-04-15T09:52:59.554Z,25.14
2023-04-15T09:55:26.530Z,25.13
2023-04-15T09:57:53.036Z,25.04
2023-04-15T10:00:19.670Z,25.13
2023-04-15T10:02:47.058Z,25.08
2023-04-15T10:05:14.793Z,25.16
2023-04-15T10:07:41.423Z,24.99
2023-04-15T10:10:11.806Z,25.22
2023-04-15T10:12:38.499Z,25.26
2023-04-15T10:15:05.680Z,25.29
2023-04-15T10:17:37.014Z,25.33
2023-04-15T10:20:04.968Z,25.36
2023-04-15T10:22:32.646Z,25.36
2023-04-15T10:25:00.663Z,25.34
2023-04-15T10:27:27.873Z,25.34
2023-04-15T10:29:54.668Z,25.39
2023-04-15T10:32:21.860Z,25.37
2023-04-15T10:34:48.979Z,25.42
2023-04-15T10:37:21.394Z,25.54
2023-04-15T10:39:48.548Z,25.49
2023-04-15T10:42:16.575Z,25.48
2023-04-15T10:44:53.154Z,25.46
2023-04-15T10:47:21.028Z,25.46
2023-04-15T10:49:51.563Z,25.48
2023-04-15T10:52:22.825Z,25.52
2023-04-15T10:54:49.580Z,25.54
2023-04-15T10:57:21.792Z,25.43
2023-04-15T11:00:10.396Z,25.59
2023-04-15T11:02:43.797Z,25.60
2023-04-15T11:05:11.666Z,25.61
2023-04-15T11:07:52.220Z,25.64
2023-04-15T11:10:18.969Z,25.68
2023-04-15T11:12:45.854Z,25.55
2023-04-15T11:15:31.129Z,25.76
2023-04-15T11:17:58.314Z,25.74
2023-04-15T11:20:25.106Z,25.74
2023-04-15T11:22:52.516Z,25.72
2023-04-15T11:25:35.595Z,25.70
2023-04-15T11:28:02.610Z,25.72
2023-04-15T11:30:32.543Z,25.70
2023-04-15T11:33:09.844Z,25.68
2023-04-15T11:35:41.005Z,25.71
2023-04-15T11:38:14.260Z,25.76
2023-04-15T11:40:41.755Z,25.75
2023-04-15T11:43:13.563Z,25.82
2023-04-15T11:45:53.116Z,25.85
2023-04-15T11:48:21.617Z,25.83
2023-04-15T11:50:53.778Z,25.89
2023-04-15T11:53:20.382Z,25.92
2023-04-15T11:55:48.399Z,25.91
2023-04-15T11:58:18.050Z,26.00
2023-04-15T12:00:54.719Z,25.97
2023-04-15T12:03:23.722Z,25.78
2023-04-15T12:06:11.541Z,26.05
2023-04-15T12:09:09.675Z,26.10
2023-04-15T12:11:38.115Z,26.07
2023-04-15T12:14:07.454Z,26.07
2023-04-15T12:16:37.190Z,26.00
2023-04-15T12:19:15.365Z,25.88
2023-04-15T12:21:45.021Z,25.94
2023-04-15T12:24:12.726Z,25.87
2023-04-15T12:26:49.029Z,25.63
2023-04-15T12:29:17.278Z,25.68
2023-04-15T12:31:49.317Z,25.66
2023-04-15T12:34:15.953Z,25.60
2023-04-15T12:36:42.558Z,25.73
2023-04-15T12:39:09.127Z,25.75
2023-04-15T12:41:35.692Z,25.78
2023-04-15T12:44:02.625Z,25.61
2023-04-15T12:46:29.417Z,25.80
2023-04-15T12:48:56.720Z,25.83
2023-04-15T12:51:23.311Z,25.81
2023-04-15T12:53:49.878Z,25.84
2023-04-15T12:56:19.849Z,25.70
2023-04-15T12:58:46.439Z,25.75
2023-04-15T13:01:13.115Z,25.70
2023-04-15T13:03:39.735Z,25.75
2023-04-15T13:06:06.933Z,25.77
2023-04-15T13:08:33.553Z,25.80
2023-04-15T13:11:00.375Z,25.79
2023-04-15T13:13:27.331Z,25.80
2023-04-15T13:15:56.984Z,25.82
2023-04-15T13:18:26.856Z,25.83
2023-04-15T13:20:53.505Z,25.74
2023-04-15T13:23:20.161Z,25.64
2023-04-15T13:25:46.948Z,25.60
2023-04-15T13:28:13.570Z,25.58
2023-04-15T13:30:40.441Z,25.44
2023-04-15T13:33:07.039Z,25.51
2023-04-15T13:35:33.969Z,25.49
2023-04-15T13:38:00.646Z,25.47
2023-04-15T13:40:27.408Z,25.43
2023-04-15T13:42:53.995Z,25.40
2023-04-15T13:45:20.706Z,25.41
2023-04-15T13:47:47.381Z,25.31
2023-04-15T13:50:14.084Z,25.34
2023-04-15T13:52:40.784Z,25.40
2023-04-15T13:55:19.363Z,25.50
2023-04-15T13:57:47.495Z,25.54
2023-04-15T14:00:14.663Z,25.59
2023-04-15T14:02:42.961Z,25.62
2023-04-15T14:05:11.479Z,25.71
2023-04-15T14:07:42.311Z,25.79
2023-04-15T14:10:09.215Z,25.79
2023-04-15T14:12:36.095Z,25.79
2023-04-15T14:15:02.862Z,25.63
2023-04-15T14:17:29.498Z,25.58
2023-04-15T14:19:56.075Z,25.56
2023-04-15T14:22:22.588Z,25.54
2023-04-15T14:24:49.274Z,25.56
2023-04-15T14:27:16.663Z,25.63
2023-04-15T14:29:43.320Z,25.56
2023-04-15T14:32:13.426Z,25.53
2023-04-15T14:34:41.087Z,25.62
2023-04-15T14:37:07.761Z,25.60
2023-04-15T14:39:34.589Z,25.51
2023-04-15T14:42:01.240Z,25.63
2023-04-15T14:44:27.883Z,25.65
2023-04-15T14:46:54.920Z,25.65
2023-04-15T14:49:21.542Z,25.60
2023-04-15T14:51:48.132Z,25.58
2023-04-15T14:54:15.052Z,25.46
2023-04-15T14:56:41.701Z,25.57
2023-04-15T14:59:08.419Z,25.48
2023-04-15T15:01:35.254Z,25.35
2023-04-15T15:04:02.020Z,25.42
2023-04-15T15:06:28.767Z,25.38
2023-04-15T15:08:55.308Z,25.51
2023-04-15T15:11:21.960Z,25.48
2023-04-15T15:13:48.621Z,25.45
2023-04-15T15:16:15.430Z,25.57
2023-04-15T15:18:42.060Z,25.58
2023-04-15T15:21:08.808Z,25.65
2023-04-15T15:23:35.516Z,25.65
2023-04-15T15:26:02.172Z,25.72
2023-04-15T15:28:28.749Z,25.73
2023-04-15T15:30:55.499Z,25.71
2023-04-15T15:33:22.471Z,25.68
2023-04-15T15:35:49.097Z,25.64
2023-04-15T15:38:15.713Z,25.71
2023-04-15T15:40:42.314Z,25.64
2023-04-15T15:43:08.957Z,25.38
2023-04-15T15:45:35.778Z,25.44
2023-04-15T15:48:02.672Z,25.48
2023-04-15T15:50:29.344Z,25.48
2023-04-15T15:52:56.091Z,25.51
2023-04-15T15:55:23.403Z,25.55
2023-04-15T15:57:50.031Z,25.59
2023-04-15T16:00:17.124Z,25.58
2023-04-15T16:05:13.453Z,25.32
2023-04-15T16:07:43.177Z,25.44
2023-04-15T16:10:10.005Z,25.25
2023-04-15T16:12:36.668Z,24.98
2023-04-15T16:15:04.325Z,24.72
2023-04-15T16:17:30.915Z,24.53
2023-04-15T16:20:01.060Z,24.31
2023-04-15T16:22:27.968Z,24.18
2023-04-15T16:24:54.552Z,24.10
2023-04-15T16:27:21.261Z,24.05
2023-04-15T16:29:50.749Z,24.16
2023-04-15T16:32:17.393Z,24.12
2023-04-15T16:34:44.043Z,24.23
2023-04-15T16:37:10.907Z,24.22
2023-04-15T16:39:37.512Z,24.27
2023-04-15T16:42:04.638Z,24.37
2023-04-15T16:44:31.553Z,24.37
2023-04-15T16:46:58.207Z,24.39
2023-04-15T16:49:24.810Z,24.52
2023-04-15T16:51:52.922Z,24.56
2023-04-15T16:54:20.702Z,24.66
2023-04-15T16:56:47.340Z,24.70
2023-04-15T16:59:13.998Z,24.79
2023-04-15T17:01:40.812Z,24.77
2023-04-15T17:04:07.580Z,24.84
2023-04-15T17:06:34.460Z,24.83
2023-04-15T17:09:01.126Z,24.84
2023-04-15T17:11:28.183Z,24.85
2023-04-15T17:13:54.829Z,24.90
2023-04-15T17:16:21.491Z,24.87
2023-04-15T17:18:50.162Z,24.65
2023-04-15T17:21:17.522Z,24.92
2023-04-15T17:23:44.204Z,24.95
2023-04-15T17:26:11.122Z,24.70
2023-04-15T17:28:37.986Z,25.02
2023-04-15T17:31:04.888Z,24.97
2023-04-15T17:34:01.274Z,24.99
2023-04-15T17:36:18.080Z,25.04
2023-04-15T17:38:45.505Z,24.99
2023-04-15T17:41:12.245Z,24.95
2023-04-15T17:43:38.962Z,25.10
2023-04-15T17:46:06.937Z,25.08
2023-04-15T17:48:34.039Z,25.16
2023-04-15T17:51:00.820Z,25.17
2023-04-15T17:53:27.402Z,25.16
2023-04-15T17:55:54.083Z,25.21
2023-04-15T17:58:20.752Z,25.20
2023-04-15T18:00:47.530Z,25.14
2023-04-15T18:03:14.649Z,25.25
2023-04-15T18:05:42.673Z,25.18
2023-04-15T18:08:09.671Z,25.03
2023-04-15T18:10:38.374Z,25.27
2023-04-15T18:13:05.063Z,25.29
2023-04-15T18:15:31.694Z,25.22
2023-04-15T18:17:58.879Z,25.26
2023-04-15T18:20:25.576Z,25.25
2023-04-15T18:22:52.618Z,25.25
2023-04-15T18:25:19.269Z,25.28
2023-04-15T18:27:45.923Z,25.25
2023-04-15T18:30:12.996Z,25.22
2023-04-15T18:32:39.660Z,25.24
2023-04-15T18:35:06.754Z,25.23
2023-04-15T18:37:33.442Z,25.05
2023-04-15T18:40:00.115Z,25.14
2023-04-15T18:42:26.785Z,25.12
2023-04-15T18:44:53.790Z,25.03
2023-04-15T18:47:20.527Z,24.78
2023-04-15T18:49:47.102Z,25.04
2023-04-15T18:52:13.797Z,24.89
2023-04-15T18:54:40.350Z,24.89
2023-04-15T18:57:07.046Z,24.87
2023-04-15T18:59:34.285Z,24.92
2023-04-15T19:02:02.129Z,24.94
2023-04-15T19:04:29.473Z,24.99
2023-04-15T19:06:56.465Z,24.94
2023-04-15T19:09:23.180Z,24.91
2023-04-15T19:11:49.919Z,24.89
2023-04-15T19:14:17.541Z,24.86
2023-04-15T19:16:47.056Z,24.84
2023-04-15T19:19:16.867Z,24.87
2023-04-15T19:21:43.520Z,24.92
2023-04-15T19:24:10.273Z,24.86
2023-04-15T19:26:39.704Z,24.64
2023-04-15T19:29:06.541Z,24.93
2023-04-15T19:31:33.382Z,24.90
2023-04-15T19:34:00.190Z,24.96
2023-04-15T19:36:28.531Z,25.02
2023-04-15T19:38:55.322Z,25.10
2023-04-15T19:41:22.022Z,25.19
2023-04-15T19:43:48.631Z,25.12
2023-04-15T19:46:15.460Z,25.28
2023-04-15T19:48:42.179Z,25.27
2023-04-15T19:51:09.054Z,25.31
2023-04-15T19:53:36.063Z,25.33
2023-04-15T19:56:02.873Z,25.28
2023-04-15T19:58:29.572Z,25.22
2023-04-15T20:00:56.617Z,25.25
2023-04-15T20:03:23.457Z,25.18
2023-04-15T20:05:50.126Z,25.28
2023-04-15T20:08:19.625Z,25.10
2023-04-15T20:10:46.297Z,25.30
2023-04-15T20:13:13.071Z,25.29
2023-04-15T20:15:39.728Z,25.29
2023-04-15T20:18:06.347Z,25.27
2023-04-15T20:20:34.602Z,25.24
2023-04-15T20:23:01.230Z,24.92
2023-04-15T20:25:27.885Z,25.22
2023-04-15T20:27:54.484Z,25.04
2023-04-15T20:30:21.179Z,25.11
2023-04-15T20:32:47.807Z,25.12
2023-04-15T20:35:14.481Z,25.10
2023-04-15T20:37:43.127Z,25.08
2023-04-15T20:40:10.737Z,25.03
2023-04-15T20:42:38.046Z,25.12
2023-04-15T20:45:06.987Z,25.03
2023-04-15T20:47:36.719Z,24.89
2023-04-15T20:50:03.466Z,25.03
2023-04-15T20:52:30.010Z,25.07
2023-04-15T20:54:56.630Z,25.08
2023-04-15T20:57:24.660Z,25.08
2023-04-15T20:59:51.366Z,25.08
2023-04-15T21:02:18.551Z,25.13
2023-04-15T21:04:47.114Z,25.08
2023-04-15T21:07:13.829Z,25.11
2023-04-15T21:09:41.489Z,25.08
2023-04-15T21:12:08.424Z,25.06
2023-04-15T21:14:36.030Z,24.77
2023-04-15T21:17:11.194Z,24.98
2023-04-15T21:19:38.163Z,24.97
2023-04-15T21:22:04.771Z,25.02
2023-04-15T21:24:31.384Z,25.02
2023-04-15T21:26:58.096Z,25.06
2023-04-15T21:29:24.745Z,24.96
2023-04-15T21:31:51.489Z,25.08
2023-04-15T21:34:18.152Z,25.06
2023-04-15T21:36:44.785Z,24.97
2023-04-15T21:39:11.337Z,25.02
2023-04-15T21:41:37.969Z,24.96
2023-04-15T21:44:04.757Z,25.00
2023-04-15T21:46:35.690Z,24.83
2023-04-15T21:49:02.536Z,24.99
2023-04-15T21:51:29.183Z,24.95
2023-04-15T21:53:55.952Z,25.00
2023-04-15T21:56:24.035Z,24.96
2023-04-15T21:58:51.134Z,24.99
2023-04-15T22:01:17.781Z,24.76
2023-04-15T22:03:44.518Z,24.97
2023-04-15T22:06:11.549Z,24.97
2023-04-15T22:08:48.306Z,24.94
2023-04-15T22:11:26.571Z,25.02
2023-04-15T22:13:53.986Z,25.00
2023-04-15T22:16:20.650Z,24.85
2023-04-15T22:18:47.252Z,24.99
2023-04-15T22:21:13.975Z,25.01
2023-04-15T22:23:40.699Z,24.96
2023-04-15T22:26:07.292Z,24.96
2023-04-15T22:28:33.836Z,24.95
2023-04-15T22:31:00.557Z,24.95
2023-04-15T22:33:27.192Z,24.94
2023-04-15T22:35:53.745Z,24.94
2023-04-15T22:38:20.297Z,24.62
2023-04-15T22:40:46.978Z,24.93
2023-04-15T22:43:13.572Z,24.92
2023-04-15T22:45:40.217Z,24.92
2023-04-15T22:48:06.951Z,24.92
2023-04-15T22:50:33.543Z,24.90
2023-04-15T22:53:00.184Z,24.93
2023-04-15T22:55:26.810Z,24.93
2023-04-15T22:57:53.430Z,24.95
2023-04-15T23:00:20.052Z,24.91
2023-04-15T23:02:46.639Z,24.90
2023-04-15T23:05:13.586Z,24.86
2023-04-15T23:07:40.340Z,24.66
2023-04-15T23:10:08.039Z,24.87
2023-04-15T23:12:34.853Z,24.76
2023-04-15T23:15:01.478Z,24.81
2023-04-15T23:17:28.119Z,24.83
2023-04-15T23:19:54.695Z,24.73
2023-04-15T23:22:21.249Z,24.86
2023-04-15T23:24:47.965Z,24.81
2023-04-15T23:27:14.584Z,24.88
2023-04-15T23:29:41.664Z,24.90
2023-04-15T23:32:08.250Z,24.88
2023-04-15T23:34:34.848Z,24.85
2023-04-15T23:37:01.398Z,24.88
2023-04-15T23:39:28.026Z,24.90
2023-04-15T23:41:54.639Z,24.83
2023-04-15T23:44:21.180Z,24.63
2023-04-15T23:46:47.836Z,24.76
2023-04-15T23:49:14.428Z,24.80
2023-04-15T23:51:41.186Z,24.83
2023-04-15T23:54:07.730Z,24.79
2023-04-15T23:56:34.333Z,24.85
2023-04-15T23:59:00.935Z,24.66
